Island Sky — C6TQ2 — position and weather

sailwx.info

Track history (hours):
 
Tides and Currents Weather Stations Pressure Air Temp Water Temp Dewpoint Dewpoint Depression Visibility Wind Speed Wind Dir Waves Ship Positions

Island Sky

Last reported at 2018-Jul-16 02:30 UTC. Time now 2018-Jul-16 02:31 UTC.
Position N 59°35' E 021°28'.

Length 90 m; draft 4.3 m.

Type: Ship. MMSI: 311743000.

Date/timePositionNaut miles runAvg speedWind from/ knotsBaromVisibWave heightAir tempDewpointWater temp
2018-Jul-16 02:30N 59°35' E 021°28'611.8
2018-Jul-16 02:00N 59°36' E 021°39'611.2
2018-Jul-16 01:30N 59°37' E 021°50'611.3
2018-Jul-16 01:00N 59°37' E 022°01'611.4
2018-Jul-16 00:30N 59°38' E 022°13'611.4
2018-Jul-16 00:00N 59°38' E 022°24'611.3
2018-Jul-15 23:30N 59°39' E 022°35'611.4
2018-Jul-15 23:00N 59°39' E 022°46'611.4
2018-Jul-15 22:30N 59°40' E 022°57'611.2
2018-Jul-15 22:00N 59°40' E 023°08'611.1
2018-Jul-15 21:30N 59°41' E 023°19'611.0
2018-Jul-15 21:00N 59°43' E 023°30'511.0
2018-Jul-15 20:30N 59°45' E 023°40'611.0
2018-Jul-15 20:00N 59°47' E 023°50'510.9
2018-Jul-15 19:30N 59°49' E 023°59'511.0
2018-Jul-15 19:00N 59°53' E 024°08'611.6
2018-Jul-15 18:30N 59°56' E 024°17'611.1
2018-Jul-15 17:58N 59°58' E 024°29'511.2
2018-Jul-15 17:30N 60°02' E 024°36'611.5
2018-Jul-15 17:00N 60°05' E 024°45'611.3
2018-Jul-15 16:30N 60°06' E 024°56'4 7.3
2018-Jul-15 16:00N 60°10' E 024°58'0 0.5
2018-Jul-15 15:30N 60°10' E 024°57'0 0.0
2018-Jul-15 14:58N 60°10' E 024°57'0 0.0
2018-Jul-15 14:25N 60°10' E 024°57'0 0.0
2018-Jul-15 13:58N 60°10' E 024°57'0 0.0
2018-Jul-15 13:28N 60°10' E 024°57'0 0.0
2018-Jul-15 12:58N 60°10' E 024°57'0 0.0
2018-Jul-15 12:28N 60°10' E 024°57'0 0.0
2018-Jul-15 11:58N 60°10' E 024°57'0 0.0
2018-Jul-15 11:28N 60°10' E 024°57'0 0.0
2018-Jul-15 10:58N 60°10' E 024°57'0 0.0
2018-Jul-15 10:28N 60°10' E 024°57'0 0.0
2018-Jul-15 09:58N 60°10' E 024°57'0 0.0
2018-Jul-15 09:28N 60°10' E 024°57'0 0.0
2018-Jul-15 08:58N 60°10' E 024°57'0 0.0
2018-Jul-15 08:28N 60°10' E 024°57'0 0.0
2018-Jul-15 07:58N 60°10' E 024°57'0 0.0
2018-Jul-15 07:28N 60°10' E 024°57'0 0.0
2018-Jul-15 06:58N 60°10' E 024°57'0 0.0
2018-Jul-15 06:28N 60°10' E 024°57'0 0.0
2018-Jul-15 05:58N 60°10' E 024°57'0 0.4
2018-Jul-15 05:30N 60°10' E 024°58'4 8.3
2018-Jul-15 05:00N 60°06' E 024°59'612.0
2018-Jul-15 04:29N 59°60' E 024°59'713.8
2018-Jul-15 04:01N 59°57' E 025°11'714.0
2018-Jul-15 03:30N 59°56' E 025°25'713.9
2018-Jul-15 03:00N 59°55' E 025°39'714.1
2018-Jul-15 02:30N 59°56' E 025°53'714.0
2018-Jul-15 02:00N 59°58' E 026°06'714.1
2018-Jul-15 01:30N 59°60' E 026°20'714.0
2018-Jul-15 01:00N 60°01' E 026°34'713.8
2018-Jul-15 00:30N 60°01' E 026°48'714.5
2018-Jul-15 00:00N 59°59' E 027°02'714.7
2018-Jul-14 23:30N 60°03' E 027°15'612.6
2018-Jul-14 23:00N 60°06' E 027°26'814.6
2018-Jul-14 22:28N 60°10' E 027°39'612.7
2018-Jul-14 22:00N 60°11' E 027°51'815.3
2018-Jul-14 21:28N 60°09' E 028°07'713.3
2018-Jul-14 20:58N 60°07' E 028°19'714.3
2018-Jul-14 20:30N 60°04' E 028°31'715.0
2018-Jul-14 20:00N 60°03' E 028°46'1016.4
2018-Jul-14 19:24N 60°03' E 029°06'2011.4
2018-Jul-14 17:37N 59°59' E 029°46'0 1.4
2018-Jul-14 17:30N 59°59' E 029°46'610.4
2018-Jul-14 16:56N 59°56' E 029°57'4 9.8
2018-Jul-14 16:30N 59°54' E 030°05'3 6.2
2018-Jul-14 15:57N 59°53' E 030°11'2 5.6
2018-Jul-14 15:30N 59°55' E 030°15'1 2.5
2018-Jul-14 14:58N 59°56' E 030°16'0 0.0
2018-Jul-14 14:30N 59°56' E 030°16'0 0.0
2018-Jul-14 13:30N 59°56' E 030°16'0 0.0
2018-Jul-14 12:57N 59°56' E 030°16'0 0.0
2018-Jul-14 12:24N 59°56' E 030°16'0 0.0
2018-Jul-14 11:57N 59°56' E 030°16'0 0.0
2018-Jul-14 11:23N 59°56' E 030°16'0 0.0
2018-Jul-14 10:49N 59°56' E 030°16'0 0.0
2018-Jul-14 10:23N 59°56' E 030°16'0 0.0
2018-Jul-14 10:00N 59°56' E 030°16'0 0.0
2018-Jul-14 09:24N 59°56' E 030°16'0 0.0
2018-Jul-14 08:58N 59°56' E 030°16'0 0.0
2018-Jul-14 08:18N 59°56' E 030°16'0 0.0
2018-Jul-14 08:00N 59°56' E 030°16'0 0.0
2018-Jul-14 07:27N 59°56' E 030°16'0 0.0
2018-Jul-14 07:00N 59°56' E 030°16'0 0.0
2018-Jul-14 06:27N 59°56' E 030°16'0 0.0
2018-Jul-14 06:00N 59°56' E 030°16'0 0.0
2018-Jul-14 05:27N 59°56' E 030°16'0 0.0
2018-Jul-14 05:01N 59°56' E 030°16'0 0.0
2018-Jul-14 04:30N 59°56' E 030°16'0 0.0
2018-Jul-14 03:53N 59°56' E 030°16'0 0.0
2018-Jul-14 03:30N 59°56' E 030°16'0 0.0
2018-Jul-14 02:54N 59°56' E 030°16'0 0.0
2018-Jul-14 02:30N 59°56' E 030°16'0 0.0
2018-Jul-14 02:00N 59°56' E 030°16'0 0.0
2018-Jul-14 01:27N 59°56' E 030°16'0 0.0
2018-Jul-14 00:57N 59°56' E 030°16'0 0.0
2018-Jul-14 00:30N 59°56' E 030°16'0 0.0
2018-Jul-13 23:57N 59°56' E 030°16'0 0.0
2018-Jul-13 23:21N 59°56' E 030°16'0 0.0
2018-Jul-13 22:55N 59°56' E 030°16'0 0.0
2018-Jul-13 22:30N 59°56' E 030°16'0 0.0
2018-Jul-13 21:57N 59°56' E 030°16'0 0.0
2018-Jul-13 21:24N 59°56' E 030°16'0 0.0
2018-Jul-13 20:58N 59°56' E 030°16'0 0.0
2018-Jul-13 20:24N 59°56' E 030°16'0 0.0
2018-Jul-13 20:00N 59°56' E 030°16'0 0.0
2018-Jul-13 19:30N 59°56' E 030°16'0 0.0
2018-Jul-13 19:00N 59°56' E 030°16'0 0.0
2018-Jul-13 18:24N 59°56' E 030°16'0 0.0
2018-Jul-13 18:00N 59°56' E 030°16'0 0.0
2018-Jul-13 17:24N 59°56' E 030°16'0 0.0
2018-Jul-13 17:00N 59°56' E 030°16'0 0.0
2018-Jul-13 16:24N 59°56' E 030°16'0 0.0
2018-Jul-13 16:00N 59°56' E 030°16'0 0.0
2018-Jul-13 15:27N 59°56' E 030°16'0 0.0
2018-Jul-13 15:00N 59°56' E 030°16'0 0.0
2018-Jul-13 14:00N 59°56' E 030°16'0 0.0
2018-Jul-13 13:27N 59°56' E 030°16'0 0.0
2018-Jul-13 13:00N 59°56' E 030°16'0 0.0
2018-Jul-13 12:27N 59°56' E 030°16'0 0.0
2018-Jul-13 12:00N 59°56' E 030°16'0 0.0
2018-Jul-13 11:27N 59°56' E 030°16'0 0.0
2018-Jul-13 10:54N 59°56' E 030°16'0 0.0
2018-Jul-13 10:27N 59°56' E 030°16'0 0.0
2018-Jul-13 10:01N 59°56' E 030°16'0 0.0
2018-Jul-13 09:27N 59°56' E 030°16'0 0.0
2018-Jul-13 08:52N 59°56' E 030°16'0 0.0
2018-Jul-13 08:30N 59°56' E 030°16'0 0.0
2018-Jul-13 07:54N 59°56' E 030°16'0 0.0
2018-Jul-13 07:27N 59°56' E 030°16'0 0.0
2018-Jul-13 06:57N 59°56' E 030°16'0 0.0
2018-Jul-13 06:30N 59°56' E 030°16'0 0.0
2018-Jul-13 05:57N 59°56' E 030°16'0 0.0
2018-Jul-13 05:30N 59°56' E 030°16'1 2.8
2018-Jul-13 04:59N 59°55' E 030°14'3 5.5
2018-Jul-13 04:30N 59°53' E 030°10'4 8.4
2018-Jul-13 03:59N 59°55' E 030°02'612.4
2018-Jul-13 03:30N 59°57' E 029°51'5 9.6
2018-Jul-13 02:59N 59°59' E 029°42'912.1
2018-Jul-13 02:12N 60°01' E 029°24'2 7.3
2018-Jul-13 01:58N 60°01' E 029°20'610.3
2018-Jul-13 01:25N 60°02' E 029°09'511.2
2018-Jul-13 01:00N 60°02' E 028°60'5 9.4
2018-Jul-13 00:30N 60°02' E 028°50'612.0
2018-Jul-13 00:00N 60°02' E 028°38'612.1
2018-Jul-12 23:30N 60°03' E 028°26'612.4
2018-Jul-12 23:00N 60°07' E 028°16'612.4
2018-Jul-12 22:30N 60°08' E 028°04'612.3
2018-Jul-12 22:00N 60°10' E 027°52'611.5
2018-Jul-12 21:28N 60°09' E 027°40'612.5
2018-Jul-12 21:00N 60°06' E 027°30'612.5
2018-Jul-12 20:30N 60°02' E 027°19'612.8
2018-Jul-12 20:00N 59°59' E 027°09'712.9
2018-Jul-12 19:28N 59°58' E 026°55'816.5
2018-Jul-12 18:58N 59°59' E 026°38'714.0
2018-Jul-12 18:26N 59°57' E 026°24'2813.0
2018-Jul-12 16:16N 59°49' E 025°30'413.4
2018-Jul-12 16:00N 59°48' E 025°24'713.3
2018-Jul-12 15:29N 59°46' E 025°11'612.8
2018-Jul-12 15:00N 59°44' E 024°59'612.8
2018-Jul-12 14:30N 59°41' E 024°48'612.4
2018-Jul-12 14:00N 59°36' E 024°41'612.3
2018-Jul-12 13:30N 59°30' E 024°46'3 6.6
2018-Jul-12 13:00N 59°27' E 024°46'0 0.0
2018-Jul-12 12:30N 59°27' E 024°46'0 0.0
2018-Jul-12 12:00N 59°27' E 024°46'0 0.0
2018-Jul-12 11:30N 59°27' E 024°46'0 0.0
2018-Jul-12 11:00N 59°27' E 024°46'0 0.0
2018-Jul-12 10:30N 59°27' E 024°46'0 0.0
2018-Jul-12 10:00N 59°27' E 024°46'0 0.0
2018-Jul-12 09:30N 59°27' E 024°46'0 0.0
2018-Jul-12 09:00N 59°27' E 024°46'0 0.0
2018-Jul-12 08:30N 59°27' E 024°46'0 0.0
2018-Jul-12 08:00N 59°27' E 024°46'0 0.0
2018-Jul-12 07:30N 59°27' E 024°46'0 0.0
2018-Jul-12 07:00N 59°27' E 024°46'0 0.0
2018-Jul-12 06:30N 59°27' E 024°46'0 0.0
2018-Jul-12 06:00N 59°27' E 024°46'0 0.0
2018-Jul-12 05:30N 59°27' E 024°46'0 0.0
2018-Jul-12 05:00N 59°27' E 024°46'0 0.0
2018-Jul-12 04:30N 59°27' E 024°46'0 0.0
2018-Jul-12 04:00N 59°27' E 024°46'2 3.5
2018-Jul-12 03:30N 59°28' E 024°45'611.7
2018-Jul-12 03:00N 59°30' E 024°34'613.0
2018-Jul-12 02:30N 59°30' E 024°22'3113.5
2018-Jul-12 00:14N 59°21' E 023°24'  
2018-Jul-08 20:43N 56°22' E 019°06'212.3
2018-Jul-08 20:30N 56°21' E 019°10'612.2
2018-Jul-08 20:00N 56°18' E 019°19'612.3
2018-Jul-08 19:30N 56°14' E 019°29'712.3
2018-Jul-08 18:58N 56°11' E 019°38'1312.2
2018-Jul-08 17:55N 56°03' E 019°58'512.2
2018-Jul-08 17:29N 56°01' E 020°05'3812.5
2018-Jul-08 14:25N 55°43' E 021°06'3 0.2
2018-Jul-08 03:07N 55°44' E 021°02'8712.0
2018-Jul-07 19:54N 54°47' E 019°06'513.1
2018-Jul-07 19:30N 54°43' E 019°01'612.9
2018-Jul-07 19:00N 54°37' E 018°56'612.4
2018-Jul-07 18:30N 54°32' E 018°49'612.7
2018-Jul-07 18:00N 54°28' E 018°42'3 6.9
2018-Jul-07 17:30N 54°24' E 018°40'0 0.2
2018-Jul-07 16:59N 54°24' E 018°40'0 0.0
2018-Jul-07 16:29N 54°24' E 018°40'0 0.0
2018-Jul-07 15:59N 54°24' E 018°40'0 0.0
2018-Jul-07 15:29N 54°24' E 018°40'0 0.0
2018-Jul-07 14:59N 54°24' E 018°40'0 0.0
2018-Jul-07 14:29N 54°24' E 018°40'0 0.0
2018-Jul-07 13:59N 54°24' E 018°40'0 0.0
2018-Jul-07 13:29N 54°24' E 018°40'0 0.0
2018-Jul-07 12:56N 54°24' E 018°40'0 0.0
2018-Jul-07 12:29N 54°24' E 018°40'0 0.0
2018-Jul-07 11:56N 54°24' E 018°40'0 0.0
2018-Jul-07 11:29N 54°24' E 018°40'0 0.0
2018-Jul-07 10:59N 54°24' E 018°40'0 0.0
2018-Jul-07 10:29N 54°24' E 018°40'0 0.0
2018-Jul-07 09:59N 54°24' E 018°40'0 0.0
2018-Jul-07 09:26N 54°24' E 018°40'0 0.0
2018-Jul-07 08:59N 54°24' E 018°40'0 0.0
2018-Jul-07 08:29N 54°24' E 018°40'0 0.0
2018-Jul-07 07:59N 54°24' E 018°40'0 0.0
2018-Jul-07 07:29N 54°24' E 018°40'0 0.0
2018-Jul-07 06:59N 54°24' E 018°40'0 0.1
2018-Jul-07 06:29N 54°24' E 018°40'2 4.6
2018-Jul-07 05:59N 54°27' E 018°40'510.9
2018-Jul-07 05:30N 54°31' E 018°45'713.0
2018-Jul-07 05:00N 54°36' E 018°53'611.1
2018-Jul-07 04:30N 54°41' E 018°57'611.5
2018-Jul-07 03:59N 54°47' E 018°58'612.5
2018-Jul-07 03:30N 54°50' E 018°50'612.3
2018-Jul-07 03:00N 54°54' E 018°41'612.2
2018-Jul-07 02:31N 54°57' E 018°33'612.4
2018-Jul-07 02:00N 54°57' E 018°22'612.5
2018-Jul-07 01:30N 54°57' E 018°11'612.3
2018-Jul-07 01:00N 54°56' E 018°00'712.6
2018-Jul-07 00:27N 54°55' E 017°48'712.3
2018-Jul-06 23:55N 54°55' E 017°37'612.6
2018-Jul-06 23:28N 54°53' E 017°28'612.5
2018-Jul-06 23:00N 54°52' E 017°18'6913.4
2018-Jul-06 17:51N 54°53' E 015°17'1314.0
2018-Jul-06 16:57N 54°55' E 014°56'613.8
2018-Jul-06 16:30N 54°57' E 014°45'713.7
2018-Jul-06 16:01N 55°02' E 014°37'5 9.4
2018-Jul-06 15:31N 55°06' E 014°42'0 0.0
2018-Jul-06 14:59N 55°06' E 014°42'0 0.0
2018-Jul-06 14:29N 55°06' E 014°42'0 0.0
2018-Jul-06 13:59N 55°06' E 014°42'0 0.0
2018-Jul-06 13:30N 55°06' E 014°42'0 0.0
2018-Jul-06 13:00N 55°06' E 014°42'0 0.0
2018-Jul-06 12:30N 55°06' E 014°42'0 0.0
2018-Jul-06 12:00N 55°06' E 014°42'1 1.5
2018-Jul-06 11:30N 55°05' E 014°40'611.2
2018-Jul-06 11:00N 55°11' E 014°39'713.3
2018-Jul-06 10:30N 55°18' E 014°41'612.0
2018-Jul-06 10:00N 55°20' E 014°51'713.2
2018-Jul-06 09:30N 55°20' E 015°03'510.2
2018-Jul-06 09:00N 55°20' E 015°11'0 0.1
2018-Jul-06 08:30N 55°20' E 015°12'0 0.0
2018-Jul-06 08:00N 55°20' E 015°12'0 0.0
2018-Jul-06 07:30N 55°20' E 015°12'0 0.0
2018-Jul-06 06:54N 55°20' E 015°12'0 0.1
2018-Jul-06 06:30N 55°20' E 015°12'0 0.1
2018-Jul-06 06:00N 55°20' E 015°12'0 0.0
2018-Jul-06 05:31N 55°20' E 015°12'0 0.1
2018-Jul-06 05:01N 55°20' E 015°11'2 4.1
2018-Jul-06 04:30N 55°21' E 015°08'5 9.4
2018-Jul-06 04:00N 55°21' E 015°00'5 9.3
2018-Jul-06 03:30N 55°22' E 014°52'510.8
2018-Jul-06 03:00N 55°23' E 014°43'713.4
2018-Jul-06 02:30N 55°19' E 014°33'  
Track history (hours):
 
Tides and Currents Weather Stations Pressure Air Temp Water Temp Dewpoint Dewpoint Depression Visibility Wind Speed Wind Dir Waves Ship Positions

Island Sky

Last reported at 2018-Jul-16 02:30 UTC. Time now 2018-Jul-16 02:31 UTC.
Position N 59°35' E 021°28'.

Length 90 m; draft 4.3 m.

Type: Ship. MMSI: 311743000.

Date/timePositionNaut miles runAvg speedWind from/ knotsBaromVisibWave heightAir tempDewpointWater temp
2018-Jul-16 02:30N 59°35' E 021°28'611.8
2018-Jul-16 02:00N 59°36' E 021°39'611.2
2018-Jul-16 01:30N 59°37' E 021°50'611.3
2018-Jul-16 01:00N 59°37' E 022°01'611.4
2018-Jul-16 00:30N 59°38' E 022°13'611.4
2018-Jul-16 00:00N 59°38' E 022°24'611.3
2018-Jul-15 23:30N 59°39' E 022°35'611.4
2018-Jul-15 23:00N 59°39' E 022°46'611.4
2018-Jul-15 22:30N 59°40' E 022°57'611.2
2018-Jul-15 22:00N 59°40' E 023°08'611.1
2018-Jul-15 21:30N 59°41' E 023°19'611.0
2018-Jul-15 21:00N 59°43' E 023°30'511.0
2018-Jul-15 20:30N 59°45' E 023°40'611.0
2018-Jul-15 20:00N 59°47' E 023°50'510.9
2018-Jul-15 19:30N 59°49' E 023°59'511.0
2018-Jul-15 19:00N 59°53' E 024°08'611.6
2018-Jul-15 18:30N 59°56' E 024°17'611.1
2018-Jul-15 17:58N 59°58' E 024°29'511.2
2018-Jul-15 17:30N 60°02' E 024°36'611.5
2018-Jul-15 17:00N 60°05' E 024°45'611.3
2018-Jul-15 16:30N 60°06' E 024°56'4 7.3
2018-Jul-15 16:00N 60°10' E 024°58'0 0.5
2018-Jul-15 15:30N 60°10' E 024°57'0 0.0
2018-Jul-15 14:58N 60°10' E 024°57'0 0.0
2018-Jul-15 14:25N 60°10' E 024°57'0 0.0
2018-Jul-15 13:58N 60°10' E 024°57'0 0.0
2018-Jul-15 13:28N 60°10' E 024°57'0 0.0
2018-Jul-15 12:58N 60°10' E 024°57'0 0.0
2018-Jul-15 12:28N 60°10' E 024°57'0 0.0
2018-Jul-15 11:58N 60°10' E 024°57'0 0.0
2018-Jul-15 11:28N 60°10' E 024°57'0 0.0
2018-Jul-15 10:58N 60°10' E 024°57'0 0.0
2018-Jul-15 10:28N 60°10' E 024°57'0 0.0
2018-Jul-15 09:58N 60°10' E 024°57'0 0.0
2018-Jul-15 09:28N 60°10' E 024°57'0 0.0
2018-Jul-15 08:58N 60°10' E 024°57'0 0.0
2018-Jul-15 08:28N 60°10' E 024°57'0 0.0
2018-Jul-15 07:58N 60°10' E 024°57'0 0.0
2018-Jul-15 07:28N 60°10' E 024°57'0 0.0
2018-Jul-15 06:58N 60°10' E 024°57'0 0.0
2018-Jul-15 06:28N 60°10' E 024°57'0 0.0
2018-Jul-15 05:58N 60°10' E 024°57'0 0.4
2018-Jul-15 05:30N 60°10' E 024°58'4 8.3
2018-Jul-15 05:00N 60°06' E 024°59'612.0
2018-Jul-15 04:29N 59°60' E 024°59'713.8
2018-Jul-15 04:01N 59°57' E 025°11'714.0
2018-Jul-15 03:30N 59°56' E 025°25'713.9
2018-Jul-15 03:00N 59°55' E 025°39'714.1
2018-Jul-15 02:30N 59°56' E 025°53'714.0
2018-Jul-15 02:00N 59°58' E 026°06'714.1
2018-Jul-15 01:30N 59°60' E 026°20'714.0
2018-Jul-15 01:00N 60°01' E 026°34'713.8
2018-Jul-15 00:30N 60°01' E 026°48'714.5
2018-Jul-15 00:00N 59°59' E 027°02'714.7
2018-Jul-14 23:30N 60°03' E 027°15'612.6
2018-Jul-14 23:00N 60°06' E 027°26'814.6
2018-Jul-14 22:28N 60°10' E 027°39'612.7
2018-Jul-14 22:00N 60°11' E 027°51'815.3
2018-Jul-14 21:28N 60°09' E 028°07'713.3
2018-Jul-14 20:58N 60°07' E 028°19'714.3
2018-Jul-14 20:30N 60°04' E 028°31'715.0
2018-Jul-14 20:00N 60°03' E 028°46'1016.4
2018-Jul-14 19:24N 60°03' E 029°06'2011.4
2018-Jul-14 17:37N 59°59' E 029°46'0 1.4
2018-Jul-14 17:30N 59°59' E 029°46'610.4
2018-Jul-14 16:56N 59°56' E 029°57'4 9.8
2018-Jul-14 16:30N 59°54' E 030°05'3 6.2
2018-Jul-14 15:57N 59°53' E 030°11'2 5.6
2018-Jul-14 15:30N 59°55' E 030°15'1 2.5
2018-Jul-14 14:58N 59°56' E 030°16'0 0.0
2018-Jul-14 14:30N 59°56' E 030°16'0 0.0
2018-Jul-14 13:30N 59°56' E 030°16'0 0.0
2018-Jul-14 12:57N 59°56' E 030°16'0 0.0
2018-Jul-14 12:24N 59°56' E 030°16'0 0.0
2018-Jul-14 11:57N 59°56' E 030°16'0 0.0
2018-Jul-14 11:23N 59°56' E 030°16'0 0.0
2018-Jul-14 10:49N 59°56' E 030°16'0 0.0
2018-Jul-14 10:23N 59°56' E 030°16'0 0.0
2018-Jul-14 10:00N 59°56' E 030°16'0 0.0
2018-Jul-14 09:24N 59°56' E 030°16'0 0.0
2018-Jul-14 08:58N 59°56' E 030°16'0 0.0
2018-Jul-14 08:18N 59°56' E 030°16'0 0.0
2018-Jul-14 08:00N 59°56' E 030°16'0 0.0
2018-Jul-14 07:27N 59°56' E 030°16'0 0.0
2018-Jul-14 07:00N 59°56' E 030°16'0 0.0
2018-Jul-14 06:27N 59°56' E 030°16'0 0.0
2018-Jul-14 06:00N 59°56' E 030°16'0 0.0
2018-Jul-14 05:27N 59°56' E 030°16'0 0.0
2018-Jul-14 05:01N 59°56' E 030°16'0 0.0
2018-Jul-14 04:30N 59°56' E 030°16'0 0.0
2018-Jul-14 03:53N 59°56' E 030°16'0 0.0
2018-Jul-14 03:30N 59°56' E 030°16'0 0.0
2018-Jul-14 02:54N 59°56' E 030°16'0 0.0
2018-Jul-14 02:30N 59°56' E 030°16'0 0.0
2018-Jul-14 02:00N 59°56' E 030°16'0 0.0
2018-Jul-14 01:27N 59°56' E 030°16'0 0.0
2018-Jul-14 00:57N 59°56' E 030°16'0 0.0
2018-Jul-14 00:30N 59°56' E 030°16'0 0.0
2018-Jul-13 23:57N 59°56' E 030°16'0 0.0
2018-Jul-13 23:21N 59°56' E 030°16'0 0.0
2018-Jul-13 22:55N 59°56' E 030°16'0 0.0
2018-Jul-13 22:30N 59°56' E 030°16'0 0.0
2018-Jul-13 21:57N 59°56' E 030°16'0 0.0
2018-Jul-13 21:24N 59°56' E 030°16'0 0.0
2018-Jul-13 20:58N 59°56' E 030°16'0 0.0
2018-Jul-13 20:24N 59°56' E 030°16'0 0.0
2018-Jul-13 20:00N 59°56' E 030°16'0 0.0
2018-Jul-13 19:30N 59°56' E 030°16'0 0.0
2018-Jul-13 19:00N 59°56' E 030°16'0 0.0
2018-Jul-13 18:24N 59°56' E 030°16'0 0.0
2018-Jul-13 18:00N 59°56' E 030°16'0 0.0
2018-Jul-13 17:24N 59°56' E 030°16'0 0.0
2018-Jul-13 17:00N 59°56' E 030°16'0 0.0
2018-Jul-13 16:24N 59°56' E 030°16'0 0.0
2018-Jul-13 16:00N 59°56' E 030°16'0 0.0
2018-Jul-13 15:27N 59°56' E 030°16'0 0.0
2018-Jul-13 15:00N 59°56' E 030°16'0 0.0
2018-Jul-13 14:00N 59°56' E 030°16'0 0.0
2018-Jul-13 13:27N 59°56' E 030°16'0 0.0
2018-Jul-13 13:00N 59°56' E 030°16'0 0.0
2018-Jul-13 12:27N 59°56' E 030°16'0 0.0
2018-Jul-13 12:00N 59°56' E 030°16'0 0.0
2018-Jul-13 11:27N 59°56' E 030°16'0 0.0
2018-Jul-13 10:54N 59°56' E 030°16'0 0.0
2018-Jul-13 10:27N 59°56' E 030°16'0 0.0
2018-Jul-13 10:01N 59°56' E 030°16'0 0.0
2018-Jul-13 09:27N 59°56' E 030°16'0 0.0
2018-Jul-13 08:52N 59°56' E 030°16'0 0.0
2018-Jul-13 08:30N 59°56' E 030°16'0 0.0
2018-Jul-13 07:54N 59°56' E 030°16'0 0.0
2018-Jul-13 07:27N 59°56' E 030°16'0 0.0
2018-Jul-13 06:57N 59°56' E 030°16'0 0.0
2018-Jul-13 06:30N 59°56' E 030°16'0 0.0
2018-Jul-13 05:57N 59°56' E 030°16'0 0.0
2018-Jul-13 05:30N 59°56' E 030°16'1 2.8
2018-Jul-13 04:59N 59°55' E 030°14'3 5.5
2018-Jul-13 04:30N 59°53' E 030°10'4 8.4
2018-Jul-13 03:59N 59°55' E 030°02'612.4
2018-Jul-13 03:30N 59°57' E 029°51'5 9.6
2018-Jul-13 02:59N 59°59' E 029°42'912.1
2018-Jul-13 02:12N 60°01' E 029°24'2 7.3
2018-Jul-13 01:58N 60°01' E 029°20'610.3
2018-Jul-13 01:25N 60°02' E 029°09'511.2
2018-Jul-13 01:00N 60°02' E 028°60'5 9.4
2018-Jul-13 00:30N 60°02' E 028°50'612.0
2018-Jul-13 00:00N 60°02' E 028°38'612.1
2018-Jul-12 23:30N 60°03' E 028°26'612.4
2018-Jul-12 23:00N 60°07' E 028°16'612.4
2018-Jul-12 22:30N 60°08' E 028°04'612.3
2018-Jul-12 22:00N 60°10' E 027°52'611.5
2018-Jul-12 21:28N 60°09' E 027°40'612.5
2018-Jul-12 21:00N 60°06' E 027°30'612.5
2018-Jul-12 20:30N 60°02' E 027°19'612.8
2018-Jul-12 20:00N 59°59' E 027°09'712.9
2018-Jul-12 19:28N 59°58' E 026°55'816.5
2018-Jul-12 18:58N 59°59' E 026°38'714.0
2018-Jul-12 18:26N 59°57' E 026°24'2813.0
2018-Jul-12 16:16N 59°49' E 025°30'413.4
2018-Jul-12 16:00N 59°48' E 025°24'713.3
2018-Jul-12 15:29N 59°46' E 025°11'612.8
2018-Jul-12 15:00N 59°44' E 024°59'612.8
2018-Jul-12 14:30N 59°41' E 024°48'612.4
2018-Jul-12 14:00N 59°36' E 024°41'612.3
2018-Jul-12 13:30N 59°30' E 024°46'3 6.6
2018-Jul-12 13:00N 59°27' E 024°46'0 0.0
2018-Jul-12 12:30N 59°27' E 024°46'0 0.0
2018-Jul-12 12:00N 59°27' E 024°46'0 0.0
2018-Jul-12 11:30N 59°27' E 024°46'0 0.0
2018-Jul-12 11:00N 59°27' E 024°46'0 0.0
2018-Jul-12 10:30N 59°27' E 024°46'0 0.0
2018-Jul-12 10:00N 59°27' E 024°46'0 0.0
2018-Jul-12 09:30N 59°27' E 024°46'0 0.0
2018-Jul-12 09:00N 59°27' E 024°46'0 0.0
2018-Jul-12 08:30N 59°27' E 024°46'0 0.0
2018-Jul-12 08:00N 59°27' E 024°46'0 0.0
2018-Jul-12 07:30N 59°27' E 024°46'0 0.0
2018-Jul-12 07:00N 59°27' E 024°46'0 0.0
2018-Jul-12 06:30N 59°27' E 024°46'0 0.0
2018-Jul-12 06:00N 59°27' E 024°46'0 0.0
2018-Jul-12 05:30N 59°27' E 024°46'0 0.0
2018-Jul-12 05:00N 59°27' E 024°46'0 0.0
2018-Jul-12 04:30N 59°27' E 024°46'0 0.0
2018-Jul-12 04:00N 59°27' E 024°46'2 3.5
2018-Jul-12 03:30N 59°28' E 024°45'611.7
2018-Jul-12 03:00N 59°30' E 024°34'613.0
2018-Jul-12 02:30N 59°30' E 024°22'3113.5
2018-Jul-12 00:14N 59°21' E 023°24'  
2018-Jul-08 20:43N 56°22' E 019°06'212.3
2018-Jul-08 20:30N 56°21' E 019°10'612.2
2018-Jul-08 20:00N 56°18' E 019°19'612.3
2018-Jul-08 19:30N 56°14' E 019°29'712.3
2018-Jul-08 18:58N 56°11' E 019°38'1312.2
2018-Jul-08 17:55N 56°03' E 019°58'512.2
2018-Jul-08 17:29N 56°01' E 020°05'3812.5
2018-Jul-08 14:25N 55°43' E 021°06'3 0.2
2018-Jul-08 03:07N 55°44' E 021°02'8712.0
2018-Jul-07 19:54N 54°47' E 019°06'513.1
2018-Jul-07 19:30N 54°43' E 019°01'612.9
2018-Jul-07 19:00N 54°37' E 018°56'612.4
2018-Jul-07 18:30N 54°32' E 018°49'612.7
2018-Jul-07 18:00N 54°28' E 018°42'3 6.9
2018-Jul-07 17:30N 54°24' E 018°40'0 0.2
2018-Jul-07 16:59N 54°24' E 018°40'0 0.0
2018-Jul-07 16:29N 54°24' E 018°40'0 0.0
2018-Jul-07 15:59N 54°24' E 018°40'0 0.0
2018-Jul-07 15:29N 54°24' E 018°40'0 0.0
2018-Jul-07 14:59N 54°24' E 018°40'0 0.0
2018-Jul-07 14:29N 54°24' E 018°40'0 0.0
2018-Jul-07 13:59N 54°24' E 018°40'0 0.0
2018-Jul-07 13:29N 54°24' E 018°40'0 0.0
2018-Jul-07 12:56N 54°24' E 018°40'0 0.0
2018-Jul-07 12:29N 54°24' E 018°40'0 0.0
2018-Jul-07 11:56N 54°24' E 018°40'0 0.0
2018-Jul-07 11:29N 54°24' E 018°40'0 0.0
2018-Jul-07 10:59N 54°24' E 018°40'0 0.0
2018-Jul-07 10:29N 54°24' E 018°40'0 0.0
2018-Jul-07 09:59N 54°24' E 018°40'0 0.0
2018-Jul-07 09:26N 54°24' E 018°40'0 0.0
2018-Jul-07 08:59N 54°24' E 018°40'0 0.0
2018-Jul-07 08:29N 54°24' E 018°40'0 0.0
2018-Jul-07 07:59N 54°24' E 018°40'0 0.0
2018-Jul-07 07:29N 54°24' E 018°40'0 0.0
2018-Jul-07 06:59N 54°24' E 018°40'0 0.1
2018-Jul-07 06:29N 54°24' E 018°40'2 4.6
2018-Jul-07 05:59N 54°27' E 018°40'510.9
2018-Jul-07 05:30N 54°31' E 018°45'713.0
2018-Jul-07 05:00N 54°36' E 018°53'611.1
2018-Jul-07 04:30N 54°41' E 018°57'611.5
2018-Jul-07 03:59N 54°47' E 018°58'612.5
2018-Jul-07 03:30N 54°50' E 018°50'612.3
2018-Jul-07 03:00N 54°54' E 018°41'612.2
2018-Jul-07 02:31N 54°57' E 018°33'612.4
2018-Jul-07 02:00N 54°57' E 018°22'612.5
2018-Jul-07 01:30N 54°57' E 018°11'612.3
2018-Jul-07 01:00N 54°56' E 018°00'712.6
2018-Jul-07 00:27N 54°55' E 017°48'712.3
2018-Jul-06 23:55N 54°55' E 017°37'612.6
2018-Jul-06 23:28N 54°53' E 017°28'612.5
2018-Jul-06 23:00N 54°52' E 017°18'6913.4
2018-Jul-06 17:51N 54°53' E 015°17'1314.0
2018-Jul-06 16:57N 54°55' E 014°56'613.8
2018-Jul-06 16:30N 54°57' E 014°45'713.7
2018-Jul-06 16:01N 55°02' E 014°37'5 9.4
2018-Jul-06 15:31N 55°06' E 014°42'0 0.0
2018-Jul-06 14:59N 55°06' E 014°42'0 0.0
2018-Jul-06 14:29N 55°06' E 014°42'0 0.0
2018-Jul-06 13:59N 55°06' E 014°42'0 0.0
2018-Jul-06 13:30N 55°06' E 014°42'0 0.0
2018-Jul-06 13:00N 55°06' E 014°42'0 0.0
2018-Jul-06 12:30N 55°06' E 014°42'0 0.0
2018-Jul-06 12:00N 55°06' E 014°42'1 1.5
2018-Jul-06 11:30N 55°05' E 014°40'611.2
2018-Jul-06 11:00N 55°11' E 014°39'713.3
2018-Jul-06 10:30N 55°18' E 014°41'612.0
2018-Jul-06 10:00N 55°20' E 014°51'713.2
2018-Jul-06 09:30N 55°20' E 015°03'510.2
2018-Jul-06 09:00N 55°20' E 015°11'0 0.1
2018-Jul-06 08:30N 55°20' E 015°12'0 0.0
2018-Jul-06 08:00N 55°20' E 015°12'0 0.0
2018-Jul-06 07:30N 55°20' E 015°12'0 0.0
2018-Jul-06 06:54N 55°20' E 015°12'0 0.1
2018-Jul-06 06:30N 55°20' E 015°12'0 0.1
2018-Jul-06 06:00N 55°20' E 015°12'0 0.0
2018-Jul-06 05:31N 55°20' E 015°12'0 0.1
2018-Jul-06 05:01N 55°20' E 015°11'2 4.1
2018-Jul-06 04:30N 55°21' E 015°08'5 9.4
2018-Jul-06 04:00N 55°21' E 015°00'5 9.3
2018-Jul-06 03:30N 55°22' E 014°52'510.8
2018-Jul-06 03:00N 55°23' E 014°43'713.4
2018-Jul-06 02:30N 55°19' E 014°33'  

Dump ship's entire track history